Página principal
METAR-TAF:

METAR-TAF

Aeroportos :

Gatineau, Quebec, Canadá

latitude: 45-31N, longitude: 075-34W, altura: 64 m

Observação actual do tempo

O boletim foi feito há 21 horas e 21 minutos, às 00:00 UTC
Vento 2 kt de norte
Temperatura 20°C
Humidade 83%
Pressão 1019 hPa
Visibilidade: 24.1 km
Nuvens fragmentadasa uma altura de 22000 ft

METAR: CYND 210000Z 01002KT 15SM BKN220 20/17 A3008 RMK CI7 SLP186 DENSITY ALT 700FT

Hora: 17:21 (21:21 UTC)

Previsão

O boletim foi feito há 27 horas e 42 minutos, às 17:39 UTC
Previsão válida de 20 às 18 UTC a 21 às 01 UTC
Vento 3 kt com direcção variável
Visibilidade: 10 km
Nuvens dispersasa uma altura de 4000 ft

TAF: CYND 201739Z 2018/2101 VRB03KT P6SM SCT040 RMK NXT FCST WILL BE ISSUED AT 211245Z

Observações e previsões do tempo de mais de 4000 aeroportos (mensagens METAR e TAF).

As estações disponíveis são os pontos amarelos e vermelhos sobre o mapa.

Mova o rato sobre o mapa para ver o nome da estação.

Depois clique no ponto para visualizar as observações e previsões meteorológicas.

Para alterar o mapa : clique nos botões verdes com uma cruz preta para aumentar o zoom; no botão verde com uma pitada de zoom; ou nas setas verdes para mapas adjacentes.


METAR-TAF: